sensor_id;sensor_type;location;lat;lon;timestamp;temperature;humidity
3758;DHT22;1894;51.038;13.692;2023-04-19T00:00:58;9.80;99.90
3758;DHT22;1894;51.038;13.692;2023-04-19T00:03:27;9.80;99.90
3758;DHT22;1894;51.038;13.692;2023-04-19T00:05:56;9.80;99.90
3758;DHT22;1894;51.038;13.692;2023-04-19T00:08:26;9.80;99.90
3758;DHT22;1894;51.038;13.692;2023-04-19T00:10:53;9.80;99.90
3758;DHT22;1894;51.038;13.692;2023-04-19T00:13:20;9.90;99.90
3758;DHT22;1894;51.038;13.692;2023-04-19T00:15:48;9.90;99.90
3758;DHT22;1894;51.038;13.692;2023-04-19T00:18:15;9.90;99.90
3758;DHT22;1894;51.038;13.692;2023-04-19T00:20:42;9.90;99.90
3758;DHT22;1894;51.038;13.692;2023-04-19T00:23:10;9.90;99.90
3758;DHT22;1894;51.038;13.692;2023-04-19T00:25:37;9.90;99.90
3758;DHT22;1894;51.038;13.692;2023-04-19T00:28:04;9.80;99.90
3758;DHT22;1894;51.038;13.692;2023-04-19T00:30:31;9.90;99.90
3758;DHT22;1894;51.038;13.692;2023-04-19T00:32:59;9.90;99.90
3758;DHT22;1894;51.038;13.692;2023-04-19T00:35:26;9.90;99.90
3758;DHT22;1894;51.038;13.692;2023-04-19T00:37:53;9.90;99.90
3758;DHT22;1894;51.038;13.692;2023-04-19T00:40:20;9.90;99.90
3758;DHT22;1894;51.038;13.692;2023-04-19T00:42:47;9.90;99.90
3758;DHT22;1894;51.038;13.692;2023-04-19T00:45:15;9.80;99.90
3758;DHT22;1894;51.038;13.692;2023-04-19T00:47:42;9.90;99.90
3758;DHT22;1894;51.038;13.692;2023-04-19T00:50:11;9.90;99.90
3758;DHT22;1894;51.038;13.692;2023-04-19T00:52:39;9.90;99.90
3758;DHT22;1894;51.038;13.692;2023-04-19T00:55:07;9.90;99.90
3758;DHT22;1894;51.038;13.692;2023-04-19T00:57:34;9.80;99.90
3758;DHT22;1894;51.038;13.692;2023-04-19T01:00:03;9.90;99.90
3758;DHT22;1894;51.038;13.692;2023-04-19T01:02:35;9.80;99.90
3758;DHT22;1894;51.038;13.692;2023-04-19T01:05:02;9.70;99.90
3758;DHT22;1894;51.038;13.692;2023-04-19T01:07:33;9.60;99.90
3758;DHT22;1894;51.038;13.692;2023-04-19T01:10:01;9.70;99.90
3758;DHT22;1894;51.038;13.692;2023-04-19T01:12:28;9.70;99.90
3758;DHT22;1894;51.038;13.692;2023-04-19T01:14:55;9.70;99.90
3758;DHT22;1894;51.038;13.692;2023-04-19T01:17:22;9.60;99.90
3758;DHT22;1894;51.038;13.692;2023-04-19T01:19:58;9.50;99.90
3758;DHT22;1894;51.038;13.692;2023-04-19T01:22:26;9.50;99.90
3758;DHT22;1894;51.038;13.692;2023-04-19T01:24:54;9.60;99.90
3758;DHT22;1894;51.038;13.692;2023-04-19T01:27:21;9.60;99.90
3758;DHT22;1894;51.038;13.692;2023-04-19T01:29:49;9.70;99.90
3758;DHT22;1894;51.038;13.692;2023-04-19T01:32:17;9.60;99.90
3758;DHT22;1894;51.038;13.692;2023-04-19T01:34:44;9.60;99.90
3758;DHT22;1894;51.038;13.692;2023-04-19T01:37:11;9.60;99.90
3758;DHT22;1894;51.038;13.692;2023-04-19T01:39:40;9.60;99.90
3758;DHT22;1894;51.038;13.692;2023-04-19T01:42:07;9.60;99.90
3758;DHT22;1894;51.038;13.692;2023-04-19T01:44:35;9.50;99.90
3758;DHT22;1894;51.038;13.692;2023-04-19T01:47:03;9.50;99.90
3758;DHT22;1894;51.038;13.692;2023-04-19T01:49:31;9.50;99.90
3758;DHT22;1894;51.038;13.692;2023-04-19T01:51:59;9.50;99.90
3758;DHT22;1894;51.038;13.692;2023-04-19T01:54:26;9.50;99.90
3758;DHT22;1894;51.038;13.692;2023-04-19T01:56:53;9.40;99.90
3758;DHT22;1894;51.038;13.692;2023-04-19T01:59:20;9.40;99.90
3758;DHT22;1894;51.038;13.692;2023-04-19T02:01:48;9.30;99.90
3758;DHT22;1894;51.038;13.692;2023-04-19T02:04:20;9.30;99.90
3758;DHT22;1894;51.038;13.692;2023-04-19T02:06:48;9.30;99.90
3758;DHT22;1894;51.038;13.692;2023-04-19T02:09:15;9.30;99.90
3758;DHT22;1894;51.038;13.692;2023-04-19T02:11:44;9.30;99.90
3758;DHT22;1894;51.038;13.692;2023-04-19T02:14:11;9.30;99.90
3758;DHT22;1894;51.038;13.692;2023-04-19T02:16:39;9.10;99.90
3758;DHT22;1894;51.038;13.692;2023-04-19T02:19:06;9.10;99.90
3758;DHT22;1894;51.038;13.692;2023-04-19T02:21:33;9.10;99.90
3758;DHT22;1894;51.038;13.692;2023-04-19T02:24:00;9.10;99.90
3758;DHT22;1894;51.038;13.692;2023-04-19T02:26:28;9.10;99.90
3758;DHT22;1894;51.038;13.692;2023-04-19T02:28:55;9.10;99.90
3758;DHT22;1894;51.038;13.692;2023-04-19T02:31:22;9.10;99.90
3758;DHT22;1894;51.038;13.692;2023-04-19T02:33:49;9.10;99.90
3758;DHT22;1894;51.038;13.692;2023-04-19T02:36:16;9.10;99.90
3758;DHT22;1894;51.038;13.692;2023-04-19T02:38:43;9.10;99.90
3758;DHT22;1894;51.038;13.692;2023-04-19T02:41:12;9.10;99.90
3758;DHT22;1894;51.038;13.692;2023-04-19T02:43:39;9.00;99.90
3758;DHT22;1894;51.038;13.692;2023-04-19T02:46:06;9.00;99.90
3758;DHT22;1894;51.038;13.692;2023-04-19T02:48:33;9.10;99.90
3758;DHT22;1894;51.038;13.692;2023-04-19T02:51:01;9.20;99.90
3758;DHT22;1894;51.038;13.692;2023-04-19T02:53:28;9.00;99.90
3758;DHT22;1894;51.038;13.692;2023-04-19T02:55:56;9.00;99.90
3758;DHT22;1894;51.038;13.692;2023-04-19T02:58:23;9.00;99.90
3758;DHT22;1894;51.038;13.692;2023-04-19T03:01:03;8.90;99.90
3758;DHT22;1894;51.038;13.692;2023-04-19T03:03:30;8.70;99.90
3758;DHT22;1894;51.038;13.692;2023-04-19T03:05:57;8.60;99.90
3758;DHT22;1894;51.038;13.692;2023-04-19T03:08:26;8.60;99.90
3758;DHT22;1894;51.038;13.692;2023-04-19T03:10:53;8.60;99.90
3758;DHT22;1894;51.038;13.692;2023-04-19T03:13:20;8.60;99.90
3758;DHT22;1894;51.038;13.692;2023-04-19T03:15:47;8.60;99.90
3758;DHT22;1894;51.038;13.692;2023-04-19T03:18:16;8.60;99.90
3758;DHT22;1894;51.038;13.692;2023-04-19T03:20:43;8.50;99.90
3758;DHT22;1894;51.038;13.692;2023-04-19T03:23:11;8.50;99.90
3758;DHT22;1894;51.038;13.692;2023-04-19T03:25:39;8.50;99.90
3758;DHT22;1894;51.038;13.692;2023-04-19T03:28:17;8.50;99.90
3758;DHT22;1894;51.038;13.692;2023-04-19T03:31:03;8.50;99.90
3758;DHT22;1894;51.038;13.692;2023-04-19T03:33:31;8.40;99.90
3758;DHT22;1894;51.038;13.692;2023-04-19T03:35:58;8.40;99.90
3758;DHT22;1894;51.038;13.692;2023-04-19T03:38:26;8.40;99.90
3758;DHT22;1894;51.038;13.692;2023-04-19T03:40:54;8.40;99.90
3758;DHT22;1894;51.038;13.692;2023-04-19T03:43:26;8.40;99.90
3758;DHT22;1894;51.038;13.692;2023-04-19T03:45:53;8.40;99.90
3758;DHT22;1894;51.038;13.692;2023-04-19T03:48:21;8.40;99.90
3758;DHT22;1894;51.038;13.692;2023-04-19T03:50:49;8.40;99.90
3758;DHT22;1894;51.038;13.692;2023-04-19T03:53:18;8.40;99.90
3758;DHT22;1894;51.038;13.692;2023-04-19T03:55:45;8.40;99.90
3758;DHT22;1894;51.038;13.692;2023-04-19T03:58:12;8.30;99.90
3758;DHT22;1894;51.038;13.692;2023-04-19T04:00:51;8.40;99.90
3758;DHT22;1894;51.038;13.692;2023-04-19T04:03:19;8.30;99.90
3758;DHT22;1894;51.038;13.692;2023-04-19T04:05:47;8.20;99.90
3758;DHT22;1894;51.038;13.692;2023-04-19T04:08:14;8.40;99.90
3758;DHT22;1894;51.038;13.692;2023-04-19T04:10:41;8.40;99.90
3758;DHT22;1894;51.038;13.692;2023-04-19T04:13:08;8.30;99.90
3758;DHT22;1894;51.038;13.692;2023-04-19T04:15:44;8.30;99.90
3758;DHT22;1894;51.038;13.692;2023-04-19T04:18:12;8.30;99.90
3758;DHT22;1894;51.038;13.692;2023-04-19T04:20:40;8.20;99.90
3758;DHT22;1894;51.038;13.692;2023-04-19T04:23:11;8.20;99.90
3758;DHT22;1894;51.038;13.692;2023-04-19T04:25:43;8.30;99.90
3758;DHT22;1894;51.038;13.692;2023-04-19T04:28:12;8.30;99.90
3758;DHT22;1894;51.038;13.692;2023-04-19T04:30:40;8.30;99.90
3758;DHT22;1894;51.038;13.692;2023-04-19T04:33:09;8.10;99.90
3758;DHT22;1894;51.038;13.692;2023-04-19T04:35:41;8.10;99.90
3758;DHT22;1894;51.038;13.692;2023-04-19T04:38:14;8.10;99.90
3758;DHT22;1894;51.038;13.692;2023-04-19T04:40:52;8.10;99.90
3758;DHT22;1894;51.038;13.692;2023-04-19T04:43:22;8.10;99.90
3758;DHT22;1894;51.038;13.692;2023-04-19T04:45:51;8.00;99.90
3758;DHT22;1894;51.038;13.692;2023-04-19T04:48:22;7.90;99.90
3758;DHT22;1894;51.038;13.692;2023-04-19T04:50:50;7.90;99.90
3758;DHT22;1894;51.038;13.692;2023-04-19T04:53:17;7.90;99.90
3758;DHT22;1894;51.038;13.692;2023-04-19T04:55:45;7.80;99.90
3758;DHT22;1894;51.038;13.692;2023-04-19T04:58:13;7.90;99.90
3758;DHT22;1894;51.038;13.692;2023-04-19T05:00:53;8.00;99.90
3758;DHT22;1894;51.038;13.692;2023-04-19T05:03:21;7.90;99.90
3758;DHT22;1894;51.038;13.692;2023-04-19T05:05:54;7.90;99.90
3758;DHT22;1894;51.038;13.692;2023-04-19T05:08:24;8.00;99.90
3758;DHT22;1894;51.038;13.692;2023-04-19T05:10:57;7.80;99.90
3758;DHT22;1894;51.038;13.692;2023-04-19T05:13:28;7.90;99.90
3758;DHT22;1894;51.038;13.692;2023-04-19T05:15:55;7.90;99.90
3758;DHT22;1894;51.038;13.692;2023-04-19T05:18:23;8.00;99.90
3758;DHT22;1894;51.038;13.692;2023-04-19T05:20:51;8.00;99.90
3758;DHT22;1894;51.038;13.692;2023-04-19T05:23:21;8.10;99.90
3758;DHT22;1894;51.038;13.692;2023-04-19T05:25:51;8.20;99.90
3758;DHT22;1894;51.038;13.692;2023-04-19T05:28:20;8.30;99.90
3758;DHT22;1894;51.038;13.692;2023-04-19T05:31:08;8.30;99.90
3758;DHT22;1894;51.038;13.692;2023-04-19T05:33:44;8.40;99.90
3758;DHT22;1894;51.038;13.692;2023-04-19T05:36:11;8.20;99.90
3758;DHT22;1894;51.038;13.692;2023-04-19T05:38:38;8.30;99.90
3758;DHT22;1894;51.038;13.692;2023-04-19T05:41:05;8.10;99.90
3758;DHT22;1894;51.038;13.692;2023-04-19T05:43:33;8.00;99.90
3758;DHT22;1894;51.038;13.692;2023-04-19T05:46:02;8.00;99.90
3758;DHT22;1894;51.038;13.692;2023-04-19T05:48:29;8.00;99.90
3758;DHT22;1894;51.038;13.692;2023-04-19T05:51:19;8.00;99.90
3758;DHT22;1894;51.038;13.692;2023-04-19T05:54:09;8.10;99.90
3758;DHT22;1894;51.038;13.692;2023-04-19T05:56:39;8.10;99.90
3758;DHT22;1894;51.038;13.692;2023-04-19T05:59:07;8.00;99.90
3758;DHT22;1894;51.038;13.692;2023-04-19T06:01:34;8.00;99.90
3758;DHT22;1894;51.038;13.692;2023-04-19T06:04:01;8.00;99.90
3758;DHT22;1894;51.038;13.692;2023-04-19T06:06:29;8.10;99.90
3758;DHT22;1894;51.038;13.692;2023-04-19T06:08:56;8.20;99.90
3758;DHT22;1894;51.038;13.692;2023-04-19T06:11:24;8.30;99.90
3758;DHT22;1894;51.038;13.692;2023-04-19T06:14:04;8.40;99.90
3758;DHT22;1894;51.038;13.692;2023-04-19T06:16:32;8.40;99.90
3758;DHT22;1894;51.038;13.692;2023-04-19T06:18:59;8.50;99.90
3758;DHT22;1894;51.038;13.692;2023-04-19T06:21:29;8.40;99.90
3758;DHT22;1894;51.038;13.692;2023-04-19T06:23:57;8.40;99.90
3758;DHT22;1894;51.038;13.692;2023-04-19T06:26:24;8.50;99.90
3758;DHT22;1894;51.038;13.692;2023-04-19T06:28:52;8.60;99.90
3758;DHT22;1894;51.038;13.692;2023-04-19T06:31:19;8.60;99.90
3758;DHT22;1894;51.038;13.692;2023-04-19T06:33:46;8.80;99.90
3758;DHT22;1894;51.038;13.692;2023-04-19T06:36:13;9.00;99.90
3758;DHT22;1894;51.038;13.692;2023-04-19T06:38:41;9.10;99.90
3758;DHT22;1894;51.038;13.692;2023-04-19T06:41:10;9.20;98.60
3758;DHT22;1894;51.038;13.692;2023-04-19T06:43:38;9.20;97.90
3758;DHT22;1894;51.038;13.692;2023-04-19T06:46:06;9.00;97.40
3758;DHT22;1894;51.038;13.692;2023-04-19T06:48:34;8.80;97.80
3758;DHT22;1894;51.038;13.692;2023-04-19T06:51:01;8.80;98.00
3758;DHT22;1894;51.038;13.692;2023-04-19T06:53:28;8.60;97.40
3758;DHT22;1894;51.038;13.692;2023-04-19T06:55:59;8.50;97.60
3758;DHT22;1894;51.038;13.692;2023-04-19T06:58:27;8.60;96.30
3758;DHT22;1894;51.038;13.692;2023-04-19T07:00:55;8.60;95.80
3758;DHT22;1894;51.038;13.692;2023-04-19T07:03:22;8.70;94.70
3758;DHT22;1894;51.038;13.692;2023-04-19T07:05:50;8.90;94.40
3758;DHT22;1894;51.038;13.692;2023-04-19T07:08:23;8.90;94.00
3758;DHT22;1894;51.038;13.692;2023-04-19T07:11:00;9.00;94.00
3758;DHT22;1894;51.038;13.692;2023-04-19T07:13:28;9.00;94.00
3758;DHT22;1894;51.038;13.692;2023-04-19T07:15:55;8.90;94.50
3758;DHT22;1894;51.038;13.692;2023-04-19T07:18:22;8.90;94.70
3758;DHT22;1894;51.038;13.692;2023-04-19T07:20:49;9.20;93.40
3758;DHT22;1894;51.038;13.692;2023-04-19T07:23:16;9.10;92.50
3758;DHT22;1894;51.038;13.692;2023-04-19T07:25:45;9.20;92.20
3758;DHT22;1894;51.038;13.692;2023-04-19T07:28:12;8.90;92.50
3758;DHT22;1894;51.038;13.692;2023-04-19T07:30:40;9.30;92.20
3758;DHT22;1894;51.038;13.692;2023-04-19T07:33:07;9.40;91.70
3758;DHT22;1894;51.038;13.692;2023-04-19T07:35:34;9.50;92.70
3758;DHT22;1894;51.038;13.692;2023-04-19T07:38:04;9.40;92.20
3758;DHT22;1894;51.038;13.692;2023-04-19T07:40:32;9.50;92.30
3758;DHT22;1894;51.038;13.692;2023-04-19T07:42:59;9.30;92.10
3758;DHT22;1894;51.038;13.692;2023-04-19T07:45:26;9.30;92.00
3758;DHT22;1894;51.038;13.692;2023-04-19T07:47:53;9.20;92.30
3758;DHT22;1894;51.038;13.692;2023-04-19T07:50:20;9.30;92.40
3758;DHT22;1894;51.038;13.692;2023-04-19T07:52:49;9.30;92.60
3758;DHT22;1894;51.038;13.692;2023-04-19T07:55:16;9.40;92.40
3758;DHT22;1894;51.038;13.692;2023-04-19T07:57:43;9.60;92.20
3758;DHT22;1894;51.038;13.692;2023-04-19T08:00:15;9.40;92.60
3758;DHT22;1894;51.038;13.692;2023-04-19T08:02:47;9.20;94.10
3758;DHT22;1894;51.038;13.692;2023-04-19T08:05:15;9.30;93.70
3758;DHT22;1894;51.038;13.692;2023-04-19T08:07:44;9.50;93.70
3758;DHT22;1894;51.038;13.692;2023-04-19T08:10:12;9.60;92.40
3758;DHT22;1894;51.038;13.692;2023-04-19T08:12:39;9.10;92.90
3758;DHT22;1894;51.038;13.692;2023-04-19T08:15:27;9.30;94.20
3758;DHT22;1894;51.038;13.692;2023-04-19T08:18:14;9.40;93.30
3758;DHT22;1894;51.038;13.692;2023-04-19T08:20:42;9.40;94.20
3758;DHT22;1894;51.038;13.692;2023-04-19T08:23:09;9.50;93.70
3758;DHT22;1894;51.038;13.692;2023-04-19T08:25:51;9.40;94.50
3758;DHT22;1894;51.038;13.692;2023-04-19T08:28:18;9.30;94.90
3758;DHT22;1894;51.038;13.692;2023-04-19T08:30:45;9.30;94.90
3758;DHT22;1894;51.038;13.692;2023-04-19T08:33:13;9.20;94.90
3758;DHT22;1894;51.038;13.692;2023-04-19T08:35:41;9.40;95.10
3758;DHT22;1894;51.038;13.692;2023-04-19T08:38:08;9.60;95.30
3758;DHT22;1894;51.038;13.692;2023-04-19T08:40:41;9.70;94.80
3758;DHT22;1894;51.038;13.692;2023-04-19T08:43:12;9.80;95.20
3758;DHT22;1894;51.038;13.692;2023-04-19T08:45:40;9.80;94.70
3758;DHT22;1894;51.038;13.692;2023-04-19T08:48:08;9.70;95.60
3758;DHT22;1894;51.038;13.692;2023-04-19T08:50:40;9.60;96.10
3758;DHT22;1894;51.038;13.692;2023-04-19T08:53:27;9.60;96.20
3758;DHT22;1894;51.038;13.692;2023-04-19T08:55:56;9.70;96.20
3758;DHT22;1894;51.038;13.692;2023-04-19T08:58:29;9.90;96.10
3758;DHT22;1894;51.038;13.692;2023-04-19T09:01:18;10.10;94.20
3758;DHT22;1894;51.038;13.692;2023-04-19T09:04:05;10.10;94.70
3758;DHT22;1894;51.038;13.692;2023-04-19T09:06:53;10.40;94.20
3758;DHT22;1894;51.038;13.692;2023-04-19T09:09:26;10.40;93.70
3758;DHT22;1894;51.038;13.692;2023-04-19T09:11:57;10.60;93.90
3758;DHT22;1894;51.038;13.692;2023-04-19T09:14:26;10.80;94.20
3758;DHT22;1894;51.038;13.692;2023-04-19T09:17:13;10.90;93.80
3758;DHT22;1894;51.038;13.692;2023-04-19T09:19:47;10.70;93.80
3758;DHT22;1894;51.038;13.692;2023-04-19T09:22:16;10.60;95.10
3758;DHT22;1894;51.038;13.692;2023-04-19T09:24:44;10.90;94.60
3758;DHT22;1894;51.038;13.692;2023-04-19T09:27:32;11.20;94.00
3758;DHT22;1894;51.038;13.692;2023-04-19T09:30:04;11.40;93.00
3758;DHT22;1894;51.038;13.692;2023-04-19T09:32:47;11.60;93.90
3758;DHT22;1894;51.038;13.692;2023-04-19T09:35:15;12.10;92.70
3758;DHT22;1894;51.038;13.692;2023-04-19T09:37:56;12.30;93.00
3758;DHT22;1894;51.038;13.692;2023-04-19T09:40:32;12.30;92.20
3758;DHT22;1894;51.038;13.692;2023-04-19T09:43:01;12.10;92.10
3758;DHT22;1894;51.038;13.692;2023-04-19T09:45:49;12.10;92.20
3758;DHT22;1894;51.038;13.692;2023-04-19T09:48:16;11.80;92.00
3758;DHT22;1894;51.038;13.692;2023-04-19T09:51:00;11.80;92.30
3758;DHT22;1894;51.038;13.692;2023-04-19T09:53:35;12.00;92.60
3758;DHT22;1894;51.038;13.692;2023-04-19T09:56:04;12.10;91.80
3758;DHT22;1894;51.038;13.692;2023-04-19T09:58:32;12.10;91.70
3758;DHT22;1894;51.038;13.692;2023-04-19T10:01:03;12.00;91.60
3758;DHT22;1894;51.038;13.692;2023-04-19T10:03:34;12.10;92.00
3758;DHT22;1894;51.038;13.692;2023-04-19T10:06:02;12.50;92.70
3758;DHT22;1894;51.038;13.692;2023-04-19T10:08:40;13.00;91.90
3758;DHT22;1894;51.038;13.692;2023-04-19T10:11:07;13.00;90.90
3758;DHT22;1894;51.038;13.692;2023-04-19T10:13:36;12.80;89.80
3758;DHT22;1894;51.038;13.692;2023-04-19T10:16:03;12.70;90.10
3758;DHT22;1894;51.038;13.692;2023-04-19T10:18:45;12.70;90.80
3758;DHT22;1894;51.038;13.692;2023-04-19T10:21:13;12.30;90.80
3758;DHT22;1894;51.038;13.692;2023-04-19T10:23:40;12.00;90.40
3758;DHT22;1894;51.038;13.692;2023-04-19T10:26:08;11.90;91.20
3758;DHT22;1894;51.038;13.692;2023-04-19T10:28:35;12.40;90.10
3758;DHT22;1894;51.038;13.692;2023-04-19T10:31:04;12.60;90.90
3758;DHT22;1894;51.038;13.692;2023-04-19T10:33:35;12.80;87.50
3758;DHT22;1894;51.038;13.692;2023-04-19T10:36:07;12.80;86.60
3758;DHT22;1894;51.038;13.692;2023-04-19T10:38:37;12.90;85.50
3758;DHT22;1894;51.038;13.692;2023-04-19T10:41:05;13.10;83.30
3758;DHT22;1894;51.038;13.692;2023-04-19T10:49:01;13.10;84.10
3758;DHT22;1894;51.038;13.692;2023-04-19T10:51:37;13.10;84.50
3758;DHT22;1894;51.038;13.692;2023-04-19T10:54:07;13.10;85.30
3758;DHT22;1894;51.038;13.692;2023-04-19T11:01:43;13.00;83.40
3758;DHT22;1894;51.038;13.692;2023-04-19T11:04:14;13.00;81.30
3758;DHT22;1894;51.038;13.692;2023-04-19T11:12:06;13.30;81.70
3758;DHT22;1894;51.038;13.692;2023-04-19T11:17:17;13.40;81.80
3758;DHT22;1894;51.038;13.692;2023-04-19T11:20:01;13.50;80.60
3758;DHT22;1894;51.038;13.692;2023-04-19T11:22:37;13.50;79.40
3758;DHT22;1894;51.038;13.692;2023-04-19T11:27:36;13.80;78.90
3758;DHT22;1894;51.038;13.692;2023-04-19T11:30:15;14.20;78.00
3758;DHT22;1894;51.038;13.692;2023-04-19T11:32:46;14.50;75.00
3758;DHT22;1894;51.038;13.692;2023-04-19T11:35:17;14.30;75.40
3758;DHT22;1894;51.038;13.692;2023-04-19T11:37:49;14.20;77.10
3758;DHT22;1894;51.038;13.692;2023-04-19T11:40:18;13.50;77.90
3758;DHT22;1894;51.038;13.692;2023-04-19T11:42:55;13.40;77.20
3758;DHT22;1894;51.038;13.692;2023-04-19T11:45:28;13.50;79.50
3758;DHT22;1894;51.038;13.692;2023-04-19T11:48:03;13.40;82.00
3758;DHT22;1894;51.038;13.692;2023-04-19T11:50:40;13.00;85.00
3758;DHT22;1894;51.038;13.692;2023-04-19T11:55:46;13.30;81.90
3758;DHT22;1894;51.038;13.692;2023-04-19T11:58:30;13.10;82.60
3758;DHT22;1894;51.038;13.692;2023-04-19T12:06:14;12.30;82.00
3758;DHT22;1894;51.038;13.692;2023-04-19T12:08:50;12.30;83.20
3758;DHT22;1894;51.038;13.692;2023-04-19T12:11:22;12.30;82.80
3758;DHT22;1894;51.038;13.692;2023-04-19T12:14:10;12.30;81.20
3758;DHT22;1894;51.038;13.692;2023-04-19T12:16:38;12.50;81.70
3758;DHT22;1894;51.038;13.692;2023-04-19T12:19:13;13.00;80.50
3758;DHT22;1894;51.038;13.692;2023-04-19T12:21:44;13.90;79.30
3758;DHT22;1894;51.038;13.692;2023-04-19T12:24:14;14.20;77.00
3758;DHT22;1894;51.038;13.692;2023-04-19T12:26:55;14.70;75.10
3758;DHT22;1894;51.038;13.692;2023-04-19T12:29:26;14.80;75.80
3758;DHT22;1894;51.038;13.692;2023-04-19T12:31:53;15.60;73.70
3758;DHT22;1894;51.038;13.692;2023-04-19T12:34:20;15.90;73.30
3758;DHT22;1894;51.038;13.692;2023-04-19T12:36:47;15.50;72.00
3758;DHT22;1894;51.038;13.692;2023-04-19T12:39:14;14.70;73.70
3758;DHT22;1894;51.038;13.692;2023-04-19T12:41:42;14.40;74.10
3758;DHT22;1894;51.038;13.692;2023-04-19T12:44:09;15.20;75.00
3758;DHT22;1894;51.038;13.692;2023-04-19T12:46:36;16.20;73.50
3758;DHT22;1894;51.038;13.692;2023-04-19T12:49:04;15.70;71.40
3758;DHT22;1894;51.038;13.692;2023-04-19T12:51:31;15.70;71.40
3758;DHT22;1894;51.038;13.692;2023-04-19T12:53:58;15.70;72.60
3758;DHT22;1894;51.038;13.692;2023-04-19T12:56:26;16.30;70.60
3758;DHT22;1894;51.038;13.692;2023-04-19T12:58:53;16.40;69.60
3758;DHT22;1894;51.038;13.692;2023-04-19T13:01:20;16.10;69.30
3758;DHT22;1894;51.038;13.692;2023-04-19T13:03:47;16.20;70.20
3758;DHT22;1894;51.038;13.692;2023-04-19T13:06:15;16.60;70.50
3758;DHT22;1894;51.038;13.692;2023-04-19T13:08:43;17.20;68.90
3758;DHT22;1894;51.038;13.692;2023-04-19T13:11:14;16.70;68.80
3758;DHT22;1894;51.038;13.692;2023-04-19T13:13:43;16.30;69.30
3758;DHT22;1894;51.038;13.692;2023-04-19T13:16:10;15.30;70.70
3758;DHT22;1894;51.038;13.692;2023-04-19T13:18:37;15.30;71.90
3758;DHT22;1894;51.038;13.692;2023-04-19T13:21:05;15.60;71.50
3758;DHT22;1894;51.038;13.692;2023-04-19T13:23:34;15.40;71.90
3758;DHT22;1894;51.038;13.692;2023-04-19T13:26:01;16.40;69.80
3758;DHT22;1894;51.038;13.692;2023-04-19T13:28:29;17.60;66.90
3758;DHT22;1894;51.038;13.692;2023-04-19T13:30:56;17.10;66.50
3758;DHT22;1894;51.038;13.692;2023-04-19T13:33:24;17.20;66.50
3758;DHT22;1894;51.038;13.692;2023-04-19T13:35:52;18.60;64.40
3758;DHT22;1894;51.038;13.692;2023-04-19T13:38:19;21.40;60.20
3758;DHT22;1894;51.038;13.692;2023-04-19T13:40:46;23.70;54.70
3758;DHT22;1894;51.038;13.692;2023-04-19T13:43:14;26.10;46.00
3758;DHT22;1894;51.038;13.692;2023-04-19T13:45:41;27.10;41.20
3758;DHT22;1894;51.038;13.692;2023-04-19T13:48:08;26.90;39.80
3758;DHT22;1894;51.038;13.692;2023-04-19T13:50:35;23.90;40.80
3758;DHT22;1894;51.038;13.692;2023-04-19T13:53:03;21.10;44.20
3758;DHT22;1894;51.038;13.692;2023-04-19T13:55:30;19.40;46.20
3758;DHT22;1894;51.038;13.692;2023-04-19T13:57:57;17.90;49.00
3758;DHT22;1894;51.038;13.692;2023-04-19T14:00:25;17.20;50.20
3758;DHT22;1894;51.038;13.692;2023-04-19T14:02:53;16.40;51.80
3758;DHT22;1894;51.038;13.692;2023-04-19T14:05:22;15.70;54.20
3758;DHT22;1894;51.038;13.692;2023-04-19T14:07:49;14.40;60.50
3758;DHT22;1894;51.038;13.692;2023-04-19T14:10:18;13.30;75.30
3758;DHT22;1894;51.038;13.692;2023-04-19T14:12:46;12.50;83.10
3758;DHT22;1894;51.038;13.692;2023-04-19T14:15:13;11.90;85.20
3758;DHT22;1894;51.038;13.692;2023-04-19T14:17:41;11.50;88.60
3758;DHT22;1894;51.038;13.692;2023-04-19T14:20:08;11.10;90.00
3758;DHT22;1894;51.038;13.692;2023-04-19T14:22:39;10.70;93.50
3758;DHT22;1894;51.038;13.692;2023-04-19T14:25:17;10.20;99.00
3758;DHT22;1894;51.038;13.692;2023-04-19T14:27:44;10.20;99.90
3758;DHT22;1894;51.038;13.692;2023-04-19T14:30:15;10.30;99.90
3758;DHT22;1894;51.038;13.692;2023-04-19T14:32:42;10.80;99.90
3758;DHT22;1894;51.038;13.692;2023-04-19T14:35:10;11.20;99.90
3758;DHT22;1894;51.038;13.692;2023-04-19T14:37:37;10.90;99.90
3758;DHT22;1894;51.038;13.692;2023-04-19T14:40:05;10.50;99.90
3758;DHT22;1894;51.038;13.692;2023-04-19T14:42:33;10.50;99.90
3758;DHT22;1894;51.038;13.692;2023-04-19T14:45:00;10.30;99.90
3758;DHT22;1894;51.038;13.692;2023-04-19T14:47:27;9.70;99.90
3758;DHT22;1894;51.038;13.692;2023-04-19T14:49:55;9.70;99.90
3758;DHT22;1894;51.038;13.692;2023-04-19T14:52:22;9.50;99.90
3758;DHT22;1894;51.038;13.692;2023-04-19T14:54:50;9.80;99.90
3758;DHT22;1894;51.038;13.692;2023-04-19T14:57:17;9.70;99.90
3758;DHT22;1894;51.038;13.692;2023-04-19T14:59:46;9.80;99.90
3758;DHT22;1894;51.038;13.692;2023-04-19T15:02:13;9.90;99.90
3758;DHT22;1894;51.038;13.692;2023-04-19T15:04:40;9.80;99.90
3758;DHT22;1894;51.038;13.692;2023-04-19T15:07:08;9.80;99.90
3758;DHT22;1894;51.038;13.692;2023-04-19T15:09:36;9.80;99.90
3758;DHT22;1894;51.038;13.692;2023-04-19T15:12:03;9.70;99.90
3758;DHT22;1894;51.038;13.692;2023-04-19T15:14:31;9.60;99.90
3758;DHT22;1894;51.038;13.692;2023-04-19T15:16:58;9.10;99.90
3758;DHT22;1894;51.038;13.692;2023-04-19T15:19:26;8.80;99.90
3758;DHT22;1894;51.038;13.692;2023-04-19T15:21:55;8.60;99.90
3758;DHT22;1894;51.038;13.692;2023-04-19T15:24:22;8.40;99.90
3758;DHT22;1894;51.038;13.692;2023-04-19T15:26:49;8.30;99.90
3758;DHT22;1894;51.038;13.692;2023-04-19T15:29:16;8.30;99.90
3758;DHT22;1894;51.038;13.692;2023-04-19T15:31:44;8.30;99.90
3758;DHT22;1894;51.038;13.692;2023-04-19T15:34:12;8.20;99.90
3758;DHT22;1894;51.038;13.692;2023-04-19T15:36:39;8.20;99.90
3758;DHT22;1894;51.038;13.692;2023-04-19T15:39:07;8.30;99.90
3758;DHT22;1894;51.038;13.692;2023-04-19T15:41:34;8.50;99.90
3758;DHT22;1894;51.038;13.692;2023-04-19T15:44:02;8.80;99.90
3758;DHT22;1894;51.038;13.692;2023-04-19T15:46:29;8.70;99.90
3758;DHT22;1894;51.038;13.692;2023-04-19T15:48:56;8.80;99.90
3758;DHT22;1894;51.038;13.692;2023-04-19T15:51:24;8.80;99.90
3758;DHT22;1894;51.038;13.692;2023-04-19T15:53:51;8.90;99.90
3758;DHT22;1894;51.038;13.692;2023-04-19T15:56:18;9.00;99.90
3758;DHT22;1894;51.038;13.692;2023-04-19T15:58:45;8.90;99.90
3758;DHT22;1894;51.038;13.692;2023-04-19T16:01:13;8.90;99.90
3758;DHT22;1894;51.038;13.692;2023-04-19T16:03:44;8.80;99.90
3758;DHT22;1894;51.038;13.692;2023-04-19T16:06:11;8.70;99.90
3758;DHT22;1894;51.038;13.692;2023-04-19T16:08:39;8.80;99.90
3758;DHT22;1894;51.038;13.692;2023-04-19T16:11:06;8.70;99.90
3758;DHT22;1894;51.038;13.692;2023-04-19T16:13:34;8.50;99.90
3758;DHT22;1894;51.038;13.692;2023-04-19T16:16:01;8.50;99.90
3758;DHT22;1894;51.038;13.692;2023-04-19T16:18:28;8.60;99.90
3758;DHT22;1894;51.038;13.692;2023-04-19T16:20:55;8.60;99.90
3758;DHT22;1894;51.038;13.692;2023-04-19T16:23:23;8.60;99.90
3758;DHT22;1894;51.038;13.692;2023-04-19T16:25:50;8.50;99.90
3758;DHT22;1894;51.038;13.692;2023-04-19T16:28:20;8.30;99.90
3758;DHT22;1894;51.038;13.692;2023-04-19T16:30:47;8.40;99.90
3758;DHT22;1894;51.038;13.692;2023-04-19T16:33:14;8.50;99.90
3758;DHT22;1894;51.038;13.692;2023-04-19T16:35:42;8.60;99.90
3758;DHT22;1894;51.038;13.692;2023-04-19T16:38:10;8.70;99.90
3758;DHT22;1894;51.038;13.692;2023-04-19T16:40:37;8.90;99.90